CheckWX is a tool to help pilots better visualize weather data.  It is not intended as a substitute for an official pre-flight weather briefing.

16:19:08 UTC

EPCE TAF
Cewice Military Airport
Lębork, Poland
TAF EPCE 211400Z 2115/2124 15016KT 9999 BKN008 TEMPO 2115/2124 16018G30KT PROB30 TEMPO 2115/2118 5000 DZRA BR OVC004

Nov-21@
15:00 UTC

Nov-21 @ 15:00 UTC

Nov-22@
00:00 UTC

Nov-22 @ 00:00 UTC

TAF EPCE 211400Z 2115/2124 15016KT 9999 BKN008
Wind
  • 150° at 16 KTS
Cloud Levels
  • Broken at 800' AGL

Nov-21@
15:00 UTC

Nov-21 @ 15:00 UTC

Nov-21@
18:00 UTC

Nov-21 @ 18:00 UTC

PROB30 TEMPO 2115/2118 5000 DZRA BR OVC004

Temporary - 30% Likelihood

Temporary - 30% Likelihood during this time.

Conditions
Drizzle, Rain, Mist
Cloud Levels
  • Overcast at 400' AGL

Nov-21@
15:00 UTC

Nov-21 @ 15:00 UTC

Nov-22@
00:00 UTC

Nov-22 @ 00:00 UTC

TEMPO 2115/2124 16018G30KT

Temporary

Temporary Changes expected for less than half the time period

Wind
  • 160° at 18 KTS
  • {Gusting to 30 KTS